Dunlevy, PA

3:57 AM EST on January 26, 2015 (GMT -0500)
Allegheny County | Change Station
CLOSE
Current Station
Airport
Location: Pittsburgh Allegheny Co.,
Elevation: 1253 ft
Nearby Weather Stations
Active Advisory: Winter Weather Advisory Active Notice: Public Information Statement

Elev 1253 ft 40.35 °N, 79.92 °W | Updated 4 minutes ago

Snow
Snow
31 °F
Feels Like 28 °F
N
4
Wind Variable Wind from Variable

Today
High -- | Low -- °F
--% Chance of Precip.
Yesterday
High -- | Low -- °F
Precip. -- in
7:33 AM 5:30 PM
Waxing Crescent, 41% visible
Pressure 29.72 in
Visibility 2.5 miles
Clouds Overcast 300 ft
Windchill 28 °F
Dew Point 28 °F
Humidity 89%
Rainfall 0.05 in
Snow Depth Not available.
UV 0 out of 12
Pollen .10 out of 12
Air Quality Not available.
Flu Activity Not available.
METAR KAGC 260853Z VRB03KT 2 1/2SM BR OVC003 M01/M02 A2967 RMK AO2 VIS 1 3/4V3 SLP064 60002 T10061022 58016

More Conditions Fewer Conditions

Pressure 29.72 in
Visibility 2.5 miles
Clouds Overcast 300 ft
Windchill 28 °F
Dew Point 28 °F
Humidity 89%
Rainfall 0.05 in
Snow Depth Not available.
UV 0 out of 12
Pollen .10 out of 12
Air Quality Not available.
Flu Activity Not available.
METAR KAGC 260853Z VRB03KT 2 1/2SM BR OVC003 M01/M02 A2967 RMK AO2 VIS 1 3/4V3 SLP064 60002 T10061022 58016

More Conditions Fewer Conditions

10-Day Weather Forecast

Almanac

Astronomy

Jan. 26, 2015 Rise Set
Actual Time
Civil Twilight
Nautical Twilight
Astronomical Twilight
Moon
Length of Visible Light
Length of Day
Tomorrow will be .
, % of the Moon is Illuminated

Today's Extremes

State Highs State Lows

Community

WunderPhotos

Upload Photos

1,790,163 photos uploaded!

WunderBlogs® & News

Nearby

Air Quality

  Air Quality AQ Index Pollutant
Not available.

Snow Depth

Station Depth Elevation

Earthquake Activity

City Distance Mag. Time & Date
Minimum magnitude displayed is 2.5.

Coastal Water Temperatures

Place Temperature

Nearby Weather Stations